Aviation Digital Data Service (ADDS)

Output produced by METARs form (0029 UTC 11 December 2017)
found at http://www.aviationweather.gov/adds/metars/
 
KILG 102351Z 20005KT 10SM CLR 01/M05 A3005 RMK AO2 SLP176 T00111050 10039 20011 51011 $
KILG 102320Z 1100/1124 24006KT P6SM BKN100 
     FM111700 29007KT P6SM FEW150